EGPF Airport Information

Runway Information
Runway 05 Length 8720 ft width 151 ft
Elevation 26 ft Threshold 0 ft Heading 46
Runway 23 Length 8720 ft Width 151 ft
Elevation 21 ft Threshold 980 ft Heading 226
Runway 09 Length 3622 ft width 151 ft
Elevation 17 ft Threshold 203 ft Heading 91
Runway 27 Length 3622 ft Width 151 ft
Elevation 23 ft Threshold 0 ft Heading 271
Airport Frequencies
Type ACC Name SHANWICK O Frequency 120.35 MHZ
Type APP Name APP Frequency 119.1 MHZ
Type ATIS Name ATIS Frequency 129.575 MHZ
Type GND Name GND Frequency 121.7 MHZ
Type TWR Name TWR Frequency 118.8 MHZ
Airport Navaids
Type NDB Name Glasgow Frequency 331 KHZ
Type VOR-DME Name Glasgow Frequency 115400 KHZ
Airport Weather Information & NOTAM
ADDS - METARS form results

(0218 UTC 17 November 2019)
Data provider http://aviationweather.gov/metar/data/
 
METAR text: EGPF 170150Z 34001KT CAVOK M01/M01 Q1010
Conditions at: EGPF (GLASGOW AIRPORT , GB) observed 0150 UTC 17 November 2019
Temperature: -1.0°C (30°F)
Dewpoint: -1.0°C (30°F) [RH = 100%]
Pressure (altimeter): 29.82 inches Hg (1010.0 mb)
Winds: from the NNW (340 degrees) at 1 MPH (1 knots; 0.5 m/s)
Visibility: 6 or more miles (10+ km)
Ceiling: ceiling and visibility are OK
Clouds: unknown
Weather: no significant weather observed at this time

METAR text: EGPF 170120Z 21001KT CAVOK M01/M01 Q1010
Conditions at: EGPF (GLASGOW AIRPORT , GB) observed 0120 UTC 17 November 2019
Temperature: -1.0°C (30°F)
Dewpoint: -1.0°C (30°F) [RH = 100%]
Pressure (altimeter): 29.82 inches Hg (1010.0 mb)
Winds: from the SSW (210 degrees) at 1 MPH (1 knots; 0.5 m/s)
Visibility: 6 or more miles (10+ km)
Ceiling: ceiling and visibility are OK
Clouds: unknown
Weather: no significant weather observed at this time

Forecast for: EGPF (GLASGOW AIRPORT , GB)
Text: TAF EGPF 162304Z 1700/1724 33005KT 9999 FEW040
Forecast period: 0000 UTC 17 November 2019 to 0000 UTC 18 November 2019
Forecast type: FROM: standard forecast or significant change
Winds: from the NNW (330 degrees) at 6 MPH (5 knots; 2.6 m/s)
Visibility: 6 or more miles 10+ km)
Ceiling: at least 12,000 feet AGL
Clouds: few clouds at 4000 feet AGL
Weather: no significant weather forecast for this period
Text: TEMPO 1700/1710 1500 BR
Forecast period: 0000 to 1000 UTC 17 November 2019
Forecast type: TEMPORARY: The following changes expected for less than half the time period
Visibility: 0.93 miles (1.50 km)
Ceiling: unknown
Clouds: missing
Weather: BR  (mist)